Time;durP1;ratioP1;P1;durP2;ratioP2;P2;SDS_P1;SDS_P2;PMS_P1;PMS_P2;Temp;Humidity;BMP_temperature;BMP_pressure;BME280_temperature;BME280_humidity;BME280_pressure;Samples;Min_cycle;Max_cycle;Signal;HPM_P1;HPM_P2
2021/01/26 00:01:45;;;;;;;9.77;4.88;;;;;;;-0.18;nan;96194.97;5013059;28;20270;-69
2021/01/26 00:04:12;;;;;;;9.25;4.97;;;;;;;-0.13;nan;96198.25;5013940;28;20602;-70
2021/01/26 00:06:39;;;;;;;15.93;6.07;;;;;;;-0.14;nan;96192.31;5013134;28;20641;-70
2021/01/26 00:09:06;;;;;;;10.63;6.03;;;;;;;-0.14;nan;96197.41;5014398;28;20698;-69
2021/01/26 00:11:33;;;;;;;12.00;6.65;;;;;;;-0.15;nan;96200.00;5012732;28;20240;-70
2021/01/26 00:14:00;;;;;;;11.52;6.80;;;;;;;-0.22;nan;96204.44;5012568;28;20600;-68
2021/01/26 00:16:27;;;;;;;10.55;6.60;;;;;;;-0.22;nan;96199.31;5014150;28;20216;-70
2021/01/26 00:19:00;;;;;;;11.05;6.47;;;;;;;-0.25;nan;96207.09;5013249;28;20736;-69
2021/01/26 00:21:27;;;;;;;14.63;6.20;;;;;;;-0.29;nan;96207.22;5014013;28;20280;-70
2021/01/26 00:23:53;;;;;;;13.95;7.10;;;;;;;-0.46;nan;96199.16;5019365;28;20266;-70
2021/01/26 00:26:21;;;;;;;9.60;5.63;;;;;;;-0.51;nan;96216.31;5025873;28;20274;-69
2021/01/26 00:28:48;;;;;;;12.25;5.75;;;;;;;-0.50;nan;96220.53;5019101;28;21081;-69
2021/01/26 00:31:15;;;;;;;12.20;7.57;;;;;;;-0.52;nan;96214.63;5020178;28;20673;-69
2021/01/26 00:33:42;;;;;;;16.73;8.10;;;;;;;-0.52;nan;96214.63;5018853;28;20235;-69
2021/01/26 00:36:10;;;;;;;15.00;6.85;;;;;;;-0.57;nan;96214.75;5020393;28;20227;-70
2021/01/26 00:38:36;;;;;;;15.25;7.55;;;;;;;-0.61;nan;96214.88;5020048;28;20228;-70
2021/01/26 00:41:03;;;;;;;11.25;6.38;;;;;;;-0.65;nan;96218.38;5019553;28;20496;-68
2021/01/26 00:43:31;;;;;;;14.25;6.72;;;;;;;-0.66;nan;96216.69;5019858;28;20552;-69
2021/01/26 00:45:58;;;;;;;12.00;6.25;;;;;;;-0.66;nan;96224.38;5020032;28;20227;-70
2021/01/26 00:48:25;;;;;;;14.43;6.40;;;;;;;-0.60;nan;96224.22;5020864;28;20749;-70
2021/01/26 00:50:52;;;;;;;12.30;5.78;;;;;;;-0.63;nan;96226.81;5017599;28;20628;-70
2021/01/26 00:53:19;;;;;;;14.20;6.43;;;;;;;-0.60;nan;96239.53;5021943;28;20606;-68
2021/01/26 00:55:45;;;;;;;10.68;6.03;;;;;;;-0.66;nan;96239.69;5019643;28;20250;-70
2021/01/26 00:58:14;;;;;;;8.38;5.03;;;;;;;-0.62;nan;96238.72;5020337;28;20674;-68
2021/01/26 01:00:42;;;;;;;8.32;4.68;;;;;;;-0.56;nan;96246.25;5020337;28;20544;-68
2021/01/26 01:03:09;;;;;;;12.00;5.40;;;;;;;-0.62;nan;96243.81;5019351;28;20222;-70
2021/01/26 01:05:35;;;;;;;7.35;3.72;;;;;;;-0.62;nan;96246.38;5019167;28;20314;-71
2021/01/26 01:08:04;;;;;;;8.48;4.85;;;;;;;-0.61;nan;96253.19;5018873;28;20284;-70
2021/01/26 01:10:35;;;;;;;9.07;4.20;;;;;;;-0.51;nan;96257.19;5017422;28;20309;-72
2021/01/26 01:13:02;;;;;;;8.27;4.45;;;;;;;-0.48;nan;96262.22;5019080;28;20783;-68
2021/01/26 01:15:29;;;;;;;5.97;4.15;;;;;;;-0.44;nan;96256.16;5018854;28;20357;-71
2021/01/26 01:17:57;;;;;;;10.75;4.70;;;;;;;-0.40;nan;96253.50;5021860;28;20698;-70
2021/01/26 01:20:26;;;;;;;8.20;4.25;;;;;;;-0.31;nan;96254.97;5021413;28;20229;-69
2021/01/26 01:22:52;;;;;;;8.15;4.65;;;;;;;-0.33;nan;96260.13;5019463;28;20454;-69
2021/01/26 01:25:20;;;;;;;11.05;4.80;;;;;;;-0.31;nan;96263.47;5018645;28;20735;-69
2021/01/26 01:27:48;;;;;;;6.38;3.67;;;;;;;-0.59;nan;96223.34;5020367;28;20657;-70
2021/01/26 01:30:18;;;;;;;8.30;4.78;;;;;;;-0.30;nan;96267.69;5019541;28;20591;-70
2021/01/26 01:32:45;;;;;;;10.63;4.80;;;;;;;-0.26;nan;96269.31;5019673;28;20334;-70
2021/01/26 01:35:14;;;;;;;9.15;5.80;;;;;;;-0.21;nan;96274.31;5016300;28;20219;-70
2021/01/26 01:37:40;;;;;;;10.60;5.70;;;;;;;-0.20;nan;96273.44;5016221;28;20528;-69
2021/01/26 01:40:10;;;;;;;8.55;4.53;;;;;;;-0.17;nan;96275.91;5011853;28;20710;-69
2021/01/26 01:42:37;;;;;;;12.02;6.07;;;;;;;-0.21;nan;96276.88;5016740;28;20673;-70
2021/01/26 01:45:07;;;;;;;11.75;5.65;;;;;;;-0.22;nan;96277.75;5015413;28;20224;-70
2021/01/26 01:47:40;;;;;;;12.68;5.80;;;;;;;-0.32;nan;96273.75;5014214;28;20188;-69
2021/01/26 01:50:11;;;;;;;9.70;5.47;;;;;;;-0.31;nan;96285.66;5012666;28;20235;-69
2021/01/26 01:52:40;;;;;;;10.23;5.75;;;;;;;-0.25;nan;96285.50;5016821;28;20578;-71
2021/01/26 01:55:13;;;;;;;12.00;5.30;;;;;;;-0.25;nan;96290.63;5014597;28;20334;-69
2021/01/26 01:57:45;;;;;;;12.57;6.10;;;;;;;-0.24;nan;96292.28;5016673;28;20357;-70
2021/01/26 02:00:15;;;;;;;14.85;7.40;;;;;;;-0.26;nan;96294.03;5031315;28;20246;-70
2021/01/26 02:02:45;;;;;;;13.88;6.95;;;;;;;-0.27;nan;96297.47;5016507;28;20192;-70
2021/01/26 02:05:14;;;;;;;15.60;6.70;;;;;;;-0.20;nan;96302.41;5016656;28;20232;-71
2021/01/26 02:07:43;;;;;;;18.20;6.70;;;;;;;-0.16;nan;96300.59;5014514;28;20245;-70
2021/01/26 02:10:11;;;;;;;16.85;7.82;;;;;;;-0.27;nan;96287.25;5017074;28;20239;-70
2021/01/26 02:12:39;;;;;;;20.80;7.00;;;;;;;-0.16;nan;96311.66;5014243;28;20865;-71
2021/01/26 02:15:07;;;;;;;19.17;7.05;;;;;;;-0.16;nan;96298.06;5016693;28;20304;-70
2021/01/26 02:17:47;;;;;;;18.55;8.77;;;;;;;-0.14;nan;96299.69;5015333;28;20204;-69
2021/01/26 02:20:47;;;;;;;19.48;8.18;;;;;;;-0.14;nan;96288.63;5012799;28;20318;-69
2021/01/26 02:23:50;;;;;;;17.60;6.90;;;;;;;-0.13;nan;96303.94;5016119;28;20618;-69
2021/01/26 02:26:58;;;;;;;15.48;7.22;;;;;;;-0.13;nan;96302.19;5012472;28;20828;-71
2021/01/26 02:29:34;;;;;;;16.02;7.47;;;;;;;-0.10;nan;96303.00;4964749;28;20315;-71
2021/01/26 02:32:10;;;;;;;16.42;7.68;;;;;;;-0.11;nan;96304.72;5016716;28;20691;-71
2021/01/26 02:35:13;;;;;;;17.98;7.05;;;;;;;-0.13;nan;96310.75;5014736;28;20566;-69
2021/01/26 02:38:15;;;;;;;17.48;5.40;;;;;;;-0.14;nan;96302.25;5010226;28;20712;-70
2021/01/26 02:40:48;;;;;;;15.57;7.30;;;;;;;-0.17;nan;96306.59;5012272;28;20611;-70
2021/01/26 02:43:30;;;;;;;10.20;5.00;;;;;;;-0.16;nan;96303.16;5015497;28;20346;-69
2021/01/26 02:46:08;;;;;;;12.07;4.47;;;;;;;-0.14;nan;96309.91;5013634;28;20263;-71
2021/01/26 02:48:49;;;;;;;13.02;4.93;;;;;;;-0.13;nan;96314.97;5013702;28;20652;-71
2021/01/26 02:51:30;;;;;;;9.43;5.22;;;;;;;-0.09;nan;96313.19;5012970;28;20229;-70
2021/01/26 02:54:03;;;;;;;11.30;5.13;;;;;;;-0.05;nan;96317.34;5016083;28;20308;-71
2021/01/26 02:56:40;;;;;;;12.93;5.75;;;;;;;-0.09;nan;96312.34;5016238;28;20292;-71
2021/01/26 02:59:17;;;;;;;8.40;3.85;;;;;;;-0.10;nan;96311.50;5019732;28;20233;-70
2021/01/26 03:01:48;;;;;;;10.52;3.65;;;;;;;-0.08;nan;96322.53;5018806;28;20535;-70
2021/01/26 03:04:20;;;;;;;11.40;4.63;;;;;;;-0.08;nan;96310.59;5017634;28;20759;-71
2021/01/26 03:06:51;;;;;;;17.05;4.43;;;;;;;-0.13;nan;96307.31;5012514;28;20620;-69
2021/01/26 03:09:25;;;;;;;9.57;4.40;;;;;;;-0.09;nan;96309.81;5016181;28;20226;-72
2021/01/26 03:11:57;;;;;;;4.25;3.15;;;;;;;-0.07;nan;96309.72;5013077;28;20529;-71
2021/01/26 03:14:30;;;;;;;3.88;2.58;;;;;;;-0.07;nan;96302.03;5015036;28;20279;-69
2021/01/26 03:17:05;;;;;;;7.28;3.60;;;;;;;-0.06;nan;96308.81;4995608;28;20619;-72
2021/01/26 03:19:35;;;;;;;11.60;4.35;;;;;;;-0.05;nan;96309.69;4995820;28;20515;-69
2021/01/26 03:22:04;;;;;;;8.05;3.63;;;;;;;-0.12;nan;96308.97;4993131;28;20626;-71
2021/01/26 03:24:36;;;;;;;6.03;2.60;;;;;;;-0.10;nan;96313.25;4991711;28;20705;-69
2021/01/26 03:27:07;;;;;;;12.65;4.13;;;;;;;-0.12;nan;96306.41;4993072;28;20677;-71
2021/01/26 03:29:38;;;;;;;8.32;2.85;;;;;;;-0.10;nan;96308.94;4992286;28;20290;-69
2021/01/26 03:32:10;;;;;;;12.40;3.15;;;;;;;-0.08;nan;96310.59;4993560;28;20307;-69
2021/01/26 03:34:37;;;;;;;7.03;3.58;;;;;;;-0.12;nan;96308.16;4994632;28;20841;-69
2021/01/26 03:37:06;;;;;;;9.63;3.70;;;;;;;-0.10;nan;96315.81;4994510;28;20675;-71
2021/01/26 03:39:33;;;;;;;7.43;3.15;;;;;;;-0.12;nan;96310.72;4992755;28;20284;-70
2021/01/26 03:42:01;;;;;;;5.35;3.10;;;;;;;-0.10;nan;96318.34;4994650;28;20753;-71
2021/01/26 03:44:29;;;;;;;5.88;2.42;;;;;;;-0.05;nan;96327.59;4996052;28;20196;-71
2021/01/26 03:47:09;;;;;;;4.95;2.53;;;;;;;-0.02;nan;96323.22;4993398;28;20897;-71
2021/01/26 03:49:52;;;;;;;3.33;2.05;;;;;;;-0.03;nan;96327.56;4991656;28;20240;-71
2021/01/26 03:52:35;;;;;;;10.63;2.75;;;;;;;0.00;nan;96336.81;5012615;28;20249;-71
2021/01/26 03:55:07;;;;;;;12.55;2.72;;;;;;;0.01;nan;96330.81;5014475;28;20669;-72
2021/01/26 03:57:56;;;;;;;6.75;2.72;;;;;;;0.03;nan;96331.59;5012785;28;20315;-72
2021/01/26 04:00:33;;;;;;;8.52;2.03;;;;;;;0.06;nan;96333.25;5013290;28;20605;-71
2021/01/26 04:03:19;;;;;;;4.63;2.38;;;;;;;0.08;nan;96334.88;5013726;28;20287;-68
2021/01/26 04:05:51;;;;;;;6.40;2.17;;;;;;;0.09;nan;96323.78;5013370;28;20654;-68
2021/01/26 04:08:21;;;;;;;3.95;1.60;;;;;;;0.10;nan;96319.50;5013710;28;20278;-68
2021/01/26 04:10:52;;;;;;;3.85;1.65;;;;;;;0.15;nan;96304.91;5013118;28;20661;-69
2021/01/26 04:13:25;;;;;;;3.10;1.48;;;;;;;0.15;nan;96313.38;5013339;28;20287;-71
2021/01/26 04:15:57;;;;;;;6.72;2.65;;;;;;;0.15;nan;96308.28;5017610;28;20629;-71
2021/01/26 04:18:29;;;;;;;1.35;0.93;;;;;;;0.13;nan;96314.31;5014020;28;20612;-69
2021/01/26 04:20:58;;;;;;;6.05;1.50;;;;;;;0.19;nan;96315.00;5013865;28;20630;-71
2021/01/26 04:23:27;;;;;;;4.57;1.38;;;;;;;0.23;nan;96316.59;5014724;28;20192;-71
2021/01/26 04:26:02;;;;;;;5.43;2.00;;;;;;;0.00;nan;96283.09;5012230;28;20839;-69
2021/01/26 04:28:35;;;;;;;1.92;1.25;;;;;;;0.28;nan;96303.66;5016277;28;20654;-70
2021/01/26 04:31:04;;;;;;;3.28;1.67;;;;;;;0.29;nan;96307.91;5013601;28;20742;-71
2021/01/26 04:33:31;;;;;;;1.73;0.80;;;;;;;0.32;nan;96313.78;5007868;28;20638;-72
2021/01/26 04:35:58;;;;;;;5.85;1.10;;;;;;;0.32;nan;96305.28;5014266;28;20224;-70
2021/01/26 04:38:25;;;;;;;4.28;1.90;;;;;;;0.38;nan;96311.03;5014228;28;20584;-70
2021/01/26 04:40:55;;;;;;;1.83;1.10;;;;;;;0.39;nan;96317.03;5012935;28;20685;-71
2021/01/26 04:43:45;;;;;;;3.42;1.23;;;;;;;0.45;nan;96317.69;5013602;28;20307;-70
2021/01/26 04:46:21;;;;;;;2.80;1.50;;;;;;;0.46;nan;96313.41;5009973;28;20303;-69
2021/01/26 04:48:59;;;;;;;8.15;1.20;;;;;;;0.46;nan;96318.53;5013172;28;20279;-69
2021/01/26 04:51:38;;;;;;;6.15;1.35;;;;;;;0.53;nan;96313.19;5012937;28;20767;-70
2021/01/26 04:54:36;;;;;;;5.20;1.15;;;;;;;0.56;nan;96323.34;5014230;28;20222;-70
2021/01/26 04:57:20;;;;;;;5.05;1.60;;;;;;;0.54;nan;96317.41;5014683;28;20694;-72
2021/01/26 05:00:06;;;;;;;3.22;1.30;;;;;;;0.57;nan;96322.47;5011073;28;20200;-69
2021/01/26 05:02:57;;;;;;;3.10;1.13;;;;;;;0.58;nan;96329.25;5011741;28;20790;-68
2021/01/26 05:05:26;;;;;;;7.45;1.92;;;;;;;0.60;nan;96332.63;5011358;28;20855;-70
2021/01/26 05:07:57;;;;;;;1.23;0.90;;;;;;;0.60;nan;96335.16;5012713;28;20213;-70
2021/01/26 05:10:30;;;;;;;2.53;1.38;;;;;;;0.60;nan;96342.03;5014866;28;20274;-70
2021/01/26 05:13:00;;;;;;;5.45;1.73;;;;;;;0.67;nan;96339.25;5017813;28;20599;-68
2021/01/26 05:15:31;;;;;;;1.33;1.20;;;;;;;0.68;nan;96340.91;5017803;28;20277;-70
2021/01/26 05:18:04;;;;;;;2.10;0.82;;;;;;;0.59;nan;96325.81;5015910;28;20298;-70
2021/01/26 05:20:38;;;;;;;3.10;1.30;;;;;;;0.60;nan;96340.28;5018498;28;21004;-71
2021/01/26 05:23:11;;;;;;;6.25;1.75;;;;;;;0.61;nan;96344.53;5018611;28;20192;-71
2021/01/26 05:25:38;;;;;;;2.45;1.38;;;;;;;0.64;nan;96356.41;5016937;28;20736;-70
2021/01/26 05:28:05;;;;;;;10.65;2.10;;;;;;;0.64;nan;96358.97;5017394;28;20201;-70
2021/01/26 05:30:35;;;;;;;9.45;2.03;;;;;;;0.61;nan;96352.22;5016389;28;20240;-71
2021/01/26 05:33:06;;;;;;;1.27;1.00;;;;;;;0.65;nan;96351.25;5017586;28;20300;-71
2021/01/26 05:35:33;;;;;;;7.05;1.17;;;;;;;0.64;nan;96344.47;5015311;28;20550;-70
2021/01/26 05:38:02;;;;;;;2.75;0.90;;;;;;;0.66;nan;96352.09;5015646;28;20323;-69
2021/01/26 05:40:34;;;;;;;2.25;1.25;;;;;;;0.65;nan;96338.44;5016515;28;20246;-70
2021/01/26 05:43:04;;;;;;;4.63;1.60;;;;;;;0.69;nan;96347.75;5016815;28;20196;-70
2021/01/26 05:45:34;;;;;;;3.83;0.98;;;;;;;0.67;nan;96352.03;5016098;28;20340;-69
2021/01/26 05:48:08;;;;;;;5.30;1.10;;;;;;;0.67;nan;96339.25;5015495;28;20637;-70
2021/01/26 05:50:37;;;;;;;6.28;1.30;;;;;;;0.71;nan;96350.25;5015773;28;20713;-71
2021/01/26 05:53:12;;;;;;;3.50;1.38;;;;;;;0.70;nan;96348.56;5018896;28;20537;-69
2021/01/26 05:55:39;;;;;;;3.03;1.10;;;;;;;0.67;nan;96344.34;5015963;28;20247;-70
2021/01/26 05:58:08;;;;;;;5.47;1.10;;;;;;;0.68;nan;96365.69;5016102;28;20292;-71
2021/01/26 06:00:36;;;;;;;3.20;1.20;;;;;;;0.70;nan;96369.91;5014260;28;20588;-70
2021/01/26 06:03:12;;;;;;;3.15;1.48;;;;;;;0.76;nan;96371.44;5015623;28;20692;-70
2021/01/26 06:05:40;;;;;;;2.38;1.08;;;;;;;0.79;nan;96372.19;5017341;28;20746;-70
2021/01/26 06:08:12;;;;;;;1.70;0.95;;;;;;;0.83;nan;96376.34;5014281;28;20197;-71
2021/01/26 06:10:41;;;;;;;2.05;1.02;;;;;;;0.82;nan;96384.91;5012623;28;20216;-70
2021/01/26 06:13:11;;;;;;;2.20;1.10;;;;;;;0.80;nan;96385.81;5015975;28;20255;-71
2021/01/26 06:15:40;;;;;;;2.03;0.88;;;;;;;0.71;nan;96363.03;5016321;28;20240;-72
2021/01/26 06:18:17;;;;;;;2.55;0.98;;;;;;;0.78;nan;96383.34;5015983;28;20296;-72
2021/01/26 06:20:45;;;;;;;6.07;1.73;;;;;;;0.79;nan;96390.13;5014263;28;20227;-71
2021/01/26 06:23:19;;;;;;;2.40;1.08;;;;;;;0.83;nan;96376.34;5017291;28;20307;-70
2021/01/26 06:25:54;;;;;;;3.85;0.98;;;;;;;0.80;nan;96384.13;5014439;28;20608;-71
2021/01/26 06:28:35;;;;;;;1.15;0.60;;;;;;;0.71;nan;96366.44;5017777;28;20239;-69
2021/01/26 06:31:11;;;;;;;5.93;1.25;;;;;;;0.83;nan;96389.13;5014143;28;20251;-71
2021/01/26 06:33:49;;;;;;;5.45;1.35;;;;;;;0.86;nan;96389.06;5015977;28;20583;-69
2021/01/26 06:36:38;;;;;;;12.88;1.20;;;;;;;0.73;nan;96363.81;5012837;28;20559;-69
2021/01/26 06:39:18;;;;;;;3.00;1.35;;;;;;;0.83;nan;96383.19;5014760;28;20236;-71
2021/01/26 06:42:07;;;;;;;7.82;1.60;;;;;;;0.82;nan;96394.31;5011388;28;20315;-71
2021/01/26 06:45:03;;;;;;;6.80;2.13;;;;;;;0.86;nan;96401.88;5015522;28;20586;-71
2021/01/26 06:47:52;;;;;;;2.25;1.10;;;;;;;0.88;nan;96402.66;5007463;28;20296;-71
2021/01/26 06:50:39;;;;;;;2.97;1.38;;;;;;;0.93;nan;96403.38;5013430;28;20217;-70
2021/01/26 06:53:18;;;;;;;5.32;1.30;;;;;;;0.96;nan;96413.53;5011678;28;20586;-71
2021/01/26 06:56:03;;;;;;;8.20;1.15;;;;;;;0.94;nan;96414.47;5014146;28;20308;-70
2021/01/26 06:59:00;;;;;;;5.22;1.48;;;;;;;0.93;nan;96413.63;5014565;28;20320;-69
2021/01/26 07:02:04;;;;;;;2.65;0.85;;;;;;;0.89;nan;96427.41;5014910;28;20220;-70
2021/01/26 07:05:09;;;;;;;5.47;1.60;;;;;;;0.85;nan;96445.44;5013092;28;20200;-70
2021/01/26 07:08:06;;;;;;;11.57;1.33;;;;;;;0.78;nan;96423.44;5016459;28;20599;-67
2021/01/26 07:10:46;;;;;;;4.95;1.60;;;;;;;0.85;nan;96432.66;5013262;28;20252;-69
2021/01/26 07:13:29;;;;;;;4.88;1.77;;;;;;;0.83;nan;96440.38;5012105;28;20539;-70
2021/01/26 07:16:30;;;;;;;6.80;1.52;;;;;;;0.78;nan;96434.53;5014713;28;20220;-70
2021/01/26 07:19:21;;;;;;;6.57;1.50;;;;;;;0.85;nan;96436.06;5013483;28;20281;-70
2021/01/26 07:22:08;;;;;;;4.85;1.83;;;;;;;0.81;nan;96442.13;5013690;28;20228;-70
2021/01/26 07:24:46;;;;;;;5.60;2.65;;;;;;;0.80;nan;96443.03;5014623;28;20247;-70
2021/01/26 07:27:37;;;;;;;2.85;1.90;;;;;;;0.82;nan;96436.13;5023957;28;20306;-70
2021/01/26 07:30:14;;;;;;;8.07;2.22;;;;;;;0.80;nan;96447.28;5013771;28;20225;-70
2021/01/26 07:32:50;;;;;;;3.92;1.90;;;;;;;0.80;nan;96457.53;5011659;28;20204;-70
2021/01/26 07:35:26;;;;;;;3.08;1.25;;;;;;;0.81;nan;96462.63;5012476;28;20244;-70
2021/01/26 07:38:00;;;;;;;7.13;2.08;;;;;;;0.82;nan;96460.91;5014279;28;20778;-71
2021/01/26 07:40:33;;;;;;;12.15;2.50;;;;;;;0.81;nan;96470.31;5015625;28;20254;-70
2021/01/26 07:43:11;;;;;;;5.93;2.63;;;;;;;0.87;nan;96480.38;5015894;28;20811;-70
2021/01/26 07:45:52;;;;;;;9.27;2.33;;;;;;;0.89;nan;96491.44;5012427;28;20698;-70
2021/01/26 07:48:28;;;;;;;3.47;1.85;;;;;;;0.88;nan;96497.44;5011781;28;20610;-70
2021/01/26 07:50:58;;;;;;;5.85;2.30;;;;;;;0.94;nan;96488.75;5014559;28;20679;-70
2021/01/26 07:53:31;;;;;;;8.30;2.20;;;;;;;0.95;nan;96504.09;5013630;28;20711;-70
2021/01/26 07:56:08;;;;;;;10.15;2.22;;;;;;;0.95;nan;96504.09;5013945;28;20255;-71
2021/01/26 07:58:36;;;;;;;7.72;2.40;;;;;;;0.99;nan;96510.81;5013419;28;20710;-71
2021/01/26 08:01:04;;;;;;;5.22;2.90;;;;;;;1.02;nan;96515.84;5012278;28;20287;-69
2021/01/26 08:03:32;;;;;;;6.50;2.85;;;;;;;1.05;nan;96514.94;5014641;28;20286;-69
2021/01/26 08:06:00;;;;;;;13.43;2.85;;;;;;;0.92;nan;96523.81;5013900;28;20228;-71
2021/01/26 08:08:29;;;;;;;11.60;3.58;;;;;;;0.84;nan;96516.34;5013891;28;20197;-71
2021/01/26 08:11:10;;;;;;;8.55;3.65;;;;;;;0.74;nan;96508.94;5013513;28;20324;-70
2021/01/26 08:13:43;;;;;;;7.75;3.70;;;;;;;0.68;nan;96525.25;5013325;28;20235;-70
2021/01/26 08:16:17;;;;;;;9.48;2.65;;;;;;;0.62;nan;96520.31;5013820;28;20656;-71
2021/01/26 08:18:45;;;;;;;9.80;3.40;;;;;;;0.57;nan;96528.97;5012862;28;20644;-71
2021/01/26 08:21:34;;;;;;;5.90;2.50;;;;;;;0.52;nan;96526.53;5012662;28;20729;-70
2021/01/26 08:24:32;;;;;;;6.68;3.40;;;;;;;0.50;nan;96530.84;5012561;28;20240;-71
2021/01/26 08:27:32;;;;;;;12.85;4.93;;;;;;;0.52;nan;96539.31;5015501;28;20228;-72
2021/01/26 08:30:02;;;;;;;9.63;4.65;;;;;;;0.47;nan;96540.31;5012268;28;20653;-70
2021/01/26 08:32:43;;;;;;;9.82;3.60;;;;;;;0.44;nan;96536.13;5022478;28;20407;-69
2021/01/26 08:35:13;;;;;;;5.45;3.65;;;;;;;0.57;nan;96547.75;5009756;28;20232;-72
2021/01/26 08:37:47;;;;;;;12.35;5.95;;;;;;;0.64;nan;96538.19;5014283;28;20239;-69
2021/01/26 08:40:41;;;;;;;12.18;4.95;;;;;;;0.69;nan;96541.47;5009701;28;20599;-70
2021/01/26 08:43:09;;;;;;;8.10;3.38;;;;;;;0.71;nan;96548.25;5010249;28;20204;-69
2021/01/26 08:45:56;;;;;;;5.30;2.47;;;;;;;0.74;nan;96547.34;5017536;28;20621;-69
2021/01/26 08:48:30;;;;;;;5.28;2.40;;;;;;;0.78;nan;96541.25;5016410;28;20666;-70
2021/01/26 08:51:25;;;;;;;7.22;2.67;;;;;;;0.83;nan;96542.81;5017917;28;20651;-68
2021/01/26 08:53:52;;;;;;;16.80;1.65;;;;;;;0.81;nan;96556.56;5017636;28;20275;-70
2021/01/26 08:56:40;;;;;;;3.58;1.85;;;;;;;0.83;nan;96545.38;5016632;28;20327;-70
2021/01/26 08:59:10;;;;;;;4.72;1.50;;;;;;;0.77;nan;96549.81;5018845;28;20240;-69
2021/01/26 09:01:53;;;;;;;3.45;1.75;;;;;;;0.84;nan;96554.75;5017513;28;20737;-71
2021/01/26 09:04:44;;;;;;;9.05;2.20;;;;;;;0.89;nan;96554.63;5028964;28;20599;-69
2021/01/26 09:07:51;;;;;;;10.25;2.15;;;;;;;0.90;nan;96558.88;5016976;28;20732;-70
2021/01/26 09:10:31;;;;;;;2.53;1.48;;;;;;;0.96;nan;96554.44;5015196;28;20808;-70
2021/01/26 09:13:07;;;;;;;4.05;1.88;;;;;;;0.96;nan;96554.44;5016928;28;20657;-70
2021/01/26 09:15:36;;;;;;;3.63;1.10;;;;;;;1.03;nan;96555.94;5015987;28;20306;-70
2021/01/26 09:18:05;;;;;;;5.60;1.63;;;;;;;1.05;nan;96561.88;5017122;28;20626;-70
2021/01/26 09:20:33;;;;;;;5.80;1.42;;;;;;;1.04;nan;96561.94;5017491;28;20713;-70
2021/01/26 09:23:05;;;;;;;3.35;1.50;;;;;;;0.96;nan;96548.47;5020072;28;20666;-69
2021/01/26 09:25:38;;;;;;;2.75;1.55;;;;;;;1.03;nan;96560.25;5019858;28;20740;-71
2021/01/26 09:28:10;;;;;;;7.75;2.55;;;;;;;1.16;nan;96565.00;5017900;28;20676;-69
2021/01/26 09:30:40;;;;;;;2.65;1.30;;;;;;;2.35;nan;96557.28;5016350;28;20593;-69
2021/01/26 09:33:21;;;;;;;3.15;1.20;;;;;;;3.48;nan;96523.47;5016925;28;20611;-70
2021/01/26 09:35:50;;;;;;;4.60;2.40;;;;;;;4.19;nan;96555.09;5016481;28;20317;-70
2021/01/26 09:38:26;;;;;;;5.55;2.03;;;;;;;3.61;nan;96573.56;5016710;28;20208;-69
2021/01/26 09:40:57;;;;;;;14.57;1.90;;;;;;;3.10;nan;96577.94;5017105;28;20247;-70
2021/01/26 09:43:26;;;;;;;3.13;1.88;;;;;;;3.26;nan;96579.13;5017028;28;20207;-69
2021/01/26 09:45:56;;;;;;;1.50;1.08;;;;;;;3.30;nan;96579.84;5016058;28;20788;-69
2021/01/26 09:48:37;;;;;;;7.15;1.75;;;;;;;3.08;nan;96584.03;5017175;28;20195;-70
2021/01/26 09:51:09;;;;;;;5.05;1.65;;;;;;;2.82;nan;96590.03;5015766;28;20606;-70
2021/01/26 09:53:38;;;;;;;6.60;1.20;;;;;;;3.34;nan;96582.28;5017890;28;20208;-69
2021/01/26 09:56:08;;;;;;;3.55;1.67;;;;;;;3.41;nan;96578.59;5014686;28;20232;-69
2021/01/26 09:58:35;;;;;;;9.45;1.85;;;;;;;3.50;nan;96578.28;5015824;28;20221;-69
2021/01/26 10:01:02;;;;;;;1.23;0.93;;;;;;;4.81;nan;96582.69;5014645;28;20618;-68
2021/01/26 10:03:31;;;;;;;4.03;1.30;;;;;;;5.26;nan;96580.00;5018722;28;20826;-68
2021/01/26 10:05:59;;;;;;;4.80;1.90;;;;;;;4.55;nan;96585.47;5016090;28;20247;-68
2021/01/26 10:08:29;;;;;;;3.67;1.60;;;;;;;3.17;nan;96610.25;5016174;28;20241;-70
2021/01/26 10:11:07;;;;;;;4.80;2.22;;;;;;;2.16;nan;96599.81;5015597;28;20224;-71
2021/01/26 10:13:36;;;;;;;6.63;2.28;;;;;;;1.78;nan;96591.50;5015851;28;20681;-71
2021/01/26 10:16:36;;;;;;;2.22;1.45;;;;;;;1.69;nan;96615.69;5014933;28;20286;-70
2021/01/26 10:19:13;;;;;;;4.00;1.77;;;;;;;2.87;nan;96616.41;5014808;28;20216;-71
2021/01/26 10:21:41;;;;;;;3.83;1.50;;;;;;;3.35;nan;96614.81;5012327;28;20524;-71
2021/01/26 10:24:13;;;;;;;2.92;1.90;;;;;;;3.14;nan;96618.09;5013393;28;20880;-71
2021/01/26 10:26:42;;;;;;;3.03;1.70;;;;;;;3.65;nan;96613.75;5012353;28;20225;-71
2021/01/26 10:29:34;;;;;;;3.17;1.58;;;;;;;4.51;nan;96619.13;5013377;28;20236;-68
2021/01/26 10:32:02;;;;;;;6.32;1.65;;;;;;;4.17;nan;96623.88;5014763;28;20936;-68
2021/01/26 10:34:40;;;;;;;6.55;1.85;;;;;;;4.09;nan;96631.88;5014511;28;20197;-71
2021/01/26 10:37:30;;;;;;;4.50;2.70;;;;;;;3.75;nan;96640.00;5013822;28;20222;-70
2021/01/26 10:40:19;;;;;;;1.92;1.05;;;;;;;3.23;nan;96637.53;5013726;28;20683;-68
2021/01/26 10:42:57;;;;;;;2.65;1.30;;;;;;;2.92;nan;96645.38;5013991;28;20196;-72
2021/01/26 10:45:49;;;;;;;5.20;1.98;;;;;;;2.60;nan;96640.41;5014372;28;20762;-70
2021/01/26 10:48:26;;;;;;;8.63;1.90;;;;;;;2.67;nan;96634.19;4988201;28;20198;-70
2021/01/26 10:50:56;;;;;;;4.22;1.73;;;;;;;2.67;nan;96647.03;5015273;28;20246;-70
2021/01/26 10:53:34;;;;;;;4.75;1.38;;;;;;;2.64;nan;96659.13;5015328;28;20188;-70
2021/01/26 10:56:01;;;;;;;5.70;2.10;;;;;;;2.52;nan;96654.34;5018660;28;20211;-70
2021/01/26 10:58:28;;;;;;;3.38;1.25;;;;;;;2.40;nan;96660.69;5016865;28;20274;-73
2021/01/26 11:00:55;;;;;;;4.60;1.75;;;;;;;2.35;nan;96665.09;5015134;28;20228;-72
2021/01/26 11:03:22;;;;;;;3.28;0.90;;;;;;;2.21;nan;96667.22;5015462;28;20524;-73
2021/01/26 11:05:52;;;;;;;2.53;0.98;;;;;;;2.20;nan;96668.13;5016343;28;20224;-74
2021/01/26 11:08:19;;;;;;;4.45;1.55;;;;;;;2.08;nan;96668.47;5014602;28;20235;-72
2021/01/26 11:10:46;;;;;;;1.95;1.13;;;;;;;2.04;nan;96669.44;5016357;28;20922;-71
2021/01/26 11:13:14;;;;;;;8.52;1.65;;;;;;;1.96;nan;96663.69;5014316;28;20643;-72
2021/01/26 11:15:41;;;;;;;25.55;7.43;;;;;;;2.03;nan;96680.59;5015671;28;20658;-71
2021/01/26 11:18:08;;;;;;;7.22;2.60;;;;;;;1.97;nan;96670.50;5011712;28;20200;-71
2021/01/26 11:20:36;;;;;;;6.85;2.20;;;;;;;1.93;nan;96674.00;5013436;28;20572;-73
2021/01/26 11:23:03;;;;;;;3.40;1.65;;;;;;;1.95;nan;96686.81;5016654;28;20759;-72
2021/01/26 11:25:30;;;;;;;9.80;3.03;;;;;;;2.01;nan;96682.38;5015758;28;20274;-73
2021/01/26 11:27:58;;;;;;;4.53;1.52;;;;;;;2.15;nan;96695.63;5014310;28;20623;-72
2021/01/26 11:30:26;;;;;;;11.05;2.22;;;;;;;2.20;nan;96698.94;5013851;28;20304;-72
2021/01/26 11:32:53;;;;;;;9.80;2.22;;;;;;;2.25;nan;96693.66;5013896;28;20204;-73
2021/01/26 11:35:23;;;;;;;3.95;2.00;;;;;;;2.37;nan;96695.88;5013610;28;20238;-71
2021/01/26 11:37:50;;;;;;;7.10;2.30;;;;;;;2.43;nan;96696.53;5014436;28;21109;-72
2021/01/26 11:40:18;;;;;;;5.20;2.00;;;;;;;2.39;nan;96694.09;5013241;28;20315;-73
2021/01/26 11:42:46;;;;;;;4.63;2.90;;;;;;;2.38;nan;96701.00;5014419;28;20690;-73
2021/01/26 11:45:16;;;;;;;4.90;2.08;;;;;;;2.40;nan;96696.66;5015204;28;20244;-72
2021/01/26 11:47:43;;;;;;;5.82;2.83;;;;;;;2.69;nan;96693.22;5012744;28;20727;-72
2021/01/26 11:50:13;;;;;;;9.23;2.53;;;;;;;2.99;nan;96690.56;5013771;28;20299;-72
2021/01/26 11:52:40;;;;;;;8.00;3.50;;;;;;;3.37;nan;96689.34;5011982;28;20283;-73
2021/01/26 11:55:10;;;;;;;11.25;2.45;;;;;;;3.80;nan;96685.28;5014007;28;20227;-73
2021/01/26 11:57:37;;;;;;;14.02;2.83;;;;;;;4.09;nan;96690.25;5015551;28;20638;-70
2021/01/26 12:00:07;;;;;;;3.70;1.88;;;;;;;4.06;nan;96685.22;5012895;28;20600;-70
2021/01/26 12:02:34;;;;;;;9.77;2.45;;;;;;;3.96;nan;96685.59;5014479;28;20602;-70
2021/01/26 12:05:02;;;;;;;5.53;2.00;;;;;;;3.78;nan;96683.66;5012942;28;20592;-69
2021/01/26 12:07:29;;;;;;;9.10;2.22;;;;;;;3.53;nan;96686.19;5013060;28;20550;-70
2021/01/26 12:09:56;;;;;;;5.70;2.80;;;;;;;3.42;nan;96680.59;5013008;28;20481;-69
2021/01/26 12:12:23;;;;;;;6.63;1.83;;;;;;;3.22;nan;96685.53;5013077;28;20799;-70
2021/01/26 12:14:50;;;;;;;4.18;1.92;;;;;;;3.01;nan;96680.22;5013999;28;20203;-71
2021/01/26 12:17:18;;;;;;;11.73;2.20;;;;;;;2.89;nan;96680.59;5012673;28;20608;-69
2021/01/26 12:19:45;;;;;;;4.65;2.00;;;;;;;2.82;nan;96677.41;5013604;28;20620;-70
2021/01/26 12:22:12;;;;;;;6.85;2.40;;;;;;;2.58;nan;96669.59;5014572;28;20637;-70
2021/01/26 12:24:38;;;;;;;3.75;1.75;;;;;;;2.46;nan;96668.22;5013131;28;20489;-69
2021/01/26 12:27:06;;;;;;;7.75;2.10;;;;;;;2.35;nan;96665.09;5013622;28;20703;-70